createdAt,value
2023-04-16T00:01:23.821Z,4.18
2023-04-16T00:06:28.164Z,4.18
2023-04-16T00:11:31.375Z,4.16
2023-04-16T00:16:34.603Z,4.19
2023-04-16T00:21:38.248Z,4.13
2023-04-16T00:26:41.054Z,4.16
2023-04-16T00:31:43.551Z,4.14
2023-04-16T00:36:45.923Z,4.18
2023-04-16T00:41:49.319Z,4.22
2023-04-16T00:46:51.699Z,4.27
2023-04-16T00:51:54.367Z,4.29
2023-04-16T00:56:58.174Z,4.38
2023-04-16T01:02:00.593Z,4.41
2023-04-16T01:07:03.292Z,4.40
2023-04-16T01:12:06.422Z,4.44
2023-04-16T01:17:08.696Z,4.45
2023-04-16T01:22:12.367Z,4.44
2023-04-16T01:27:15.732Z,4.39
2023-04-16T01:32:18.289Z,4.44
2023-04-16T01:37:22.041Z,4.48
2023-04-16T01:42:24.471Z,4.44
2023-04-16T01:47:27.190Z,4.47
2023-04-16T01:52:29.598Z,4.43
2023-04-16T01:57:31.940Z,4.51
2023-04-16T02:02:34.923Z,4.58
2023-04-16T02:07:37.411Z,4.57
2023-04-16T02:12:40.602Z,4.57
2023-04-16T02:17:43.770Z,4.51
2023-04-16T02:22:48.601Z,4.52
2023-04-16T02:27:51.841Z,4.51
2023-04-16T02:32:54.316Z,4.64
2023-04-16T02:38:02.118Z,4.59
2023-04-16T02:43:04.445Z,4.61
2023-04-16T02:48:08.696Z,4.57
2023-04-16T02:53:11.585Z,4.58
2023-04-16T02:58:14.788Z,4.52
2023-04-16T03:03:17.660Z,4.63
2023-04-16T03:08:20.749Z,4.60
2023-04-16T03:13:23.860Z,4.59
2023-04-16T03:18:26.953Z,4.70
2023-04-16T03:23:30.865Z,4.60
2023-04-16T03:28:33.245Z,4.65
2023-04-16T03:33:35.862Z,4.63
2023-04-16T03:38:38.229Z,4.71
2023-04-16T03:43:40.604Z,4.67
2023-04-16T03:48:43.666Z,4.64
2023-04-16T03:53:45.977Z,4.52
2023-04-16T03:58:48.322Z,4.51
2023-04-16T04:03:51.217Z,4.51
2023-04-16T04:08:53.877Z,4.45
2023-04-16T04:13:56.273Z,4.45
2023-04-16T04:19:00.165Z,4.41
2023-04-16T04:24:03.284Z,4.39
2023-04-16T04:29:06.519Z,4.34
2023-04-16T04:34:08.831Z,4.25
2023-04-16T04:39:11.300Z,4.32
2023-04-16T04:44:13.854Z,4.31
2023-04-16T04:49:16.436Z,4.34
2023-04-16T04:54:19.148Z,4.37
2023-04-16T04:59:21.562Z,4.40
2023-04-16T05:04:24.830Z,4.45
2023-04-16T05:09:27.788Z,4.44
2023-04-16T05:14:30.444Z,4.50
2023-04-16T05:19:32.745Z,4.63
2023-04-16T05:24:35.797Z,4.70
2023-04-16T05:29:38.269Z,4.80
2023-04-16T05:34:40.601Z,4.80
2023-04-16T05:39:43.100Z,4.81
2023-04-16T05:44:45.677Z,4.88
2023-04-16T05:49:48.916Z,4.83
2023-04-16T05:54:51.802Z,4.91
2023-04-16T05:59:54.222Z,5.02
2023-04-16T06:04:56.768Z,5.13
2023-04-16T06:10:00.000Z,5.20
2023-04-16T06:15:04.556Z,5.38
2023-04-16T06:20:07.206Z,5.56
2023-04-16T06:25:09.522Z,5.68
2023-04-16T06:30:11.826Z,5.89
2023-04-16T06:35:14.283Z,6.02
2023-04-16T06:40:16.803Z,5.96
2023-04-16T06:45:20.052Z,6.01
2023-04-16T06:50:23.428Z,6.28
2023-04-16T06:55:35.854Z,6.61
2023-04-16T07:00:39.163Z,6.60
2023-04-16T07:05:42.452Z,6.73
2023-04-16T07:10:45.221Z,6.85
2023-04-16T07:15:57.676Z,6.73
2023-04-16T07:21:00.744Z,6.88
2023-04-16T07:26:04.578Z,7.00
2023-04-16T07:31:07.008Z,6.68
2023-04-16T07:36:09.510Z,6.74
2023-04-16T07:41:11.813Z,6.75
2023-04-16T07:46:14.551Z,6.99
2023-04-16T07:51:17.903Z,7.03
2023-04-16T07:56:21.467Z,7.20
2023-04-16T08:01:24.228Z,7.30
2023-04-16T08:06:27.145Z,7.29
2023-04-16T08:11:30.432Z,7.43
2023-04-16T08:16:33.545Z,7.71
2023-04-16T08:21:35.926Z,8.02
2023-04-16T08:26:38.310Z,8.37
2023-04-16T08:31:40.692Z,8.88
2023-04-16T08:36:43.533Z,8.75
2023-04-16T08:41:46.239Z,9.32
2023-04-16T08:46:49.292Z,9.00
2023-04-16T08:51:52.299Z,9.36
2023-04-16T08:56:55.526Z,9.64
2023-04-16T09:01:58.315Z,9.88
2023-04-16T09:07:01.178Z,10.22
2023-04-16T09:12:03.604Z,10.67
2023-04-16T09:17:06.658Z,10.74
2023-04-16T09:22:09.095Z,10.93
2023-04-16T09:27:12.045Z,10.92
2023-04-16T09:32:15.149Z,10.79
2023-04-16T09:37:17.606Z,10.45
2023-04-16T09:42:21.007Z,10.26
2023-04-16T09:47:24.186Z,10.65
2023-04-16T09:52:28.038Z,11.16
2023-04-16T09:57:31.168Z,10.98
2023-04-16T10:02:34.698Z,11.29
2023-04-16T10:07:37.078Z,10.98
2023-04-16T10:12:39.402Z,11.29
2023-04-16T10:17:42.350Z,11.05
2023-04-16T10:22:44.754Z,11.25
2023-04-16T10:27:48.262Z,11.01
2023-04-16T10:32:50.753Z,11.32
2023-04-16T10:37:53.197Z,11.49
2023-04-16T10:42:56.371Z,11.04
2023-04-16T10:47:58.804Z,10.99
2023-04-16T10:53:02.051Z,11.22
2023-04-16T10:58:04.718Z,11.45
2023-04-16T11:03:07.927Z,10.86
2023-04-16T11:08:11.101Z,10.46
2023-04-16T11:13:13.452Z,10.63
2023-04-16T11:18:16.723Z,10.81
2023-04-16T11:23:19.101Z,10.72
2023-04-16T11:28:26.475Z,10.77
2023-04-16T11:33:28.857Z,11.60
2023-04-16T11:38:31.291Z,12.04
2023-04-16T11:43:34.462Z,12.58
2023-04-16T11:48:37.566Z,12.82
2023-04-16T11:53:40.940Z,12.19
2023-04-16T11:58:44.069Z,11.85
2023-04-16T12:03:49.807Z,11.45
2023-04-16T12:08:53.025Z,11.70
2023-04-16T12:13:55.565Z,11.95
2023-04-16T12:18:57.941Z,12.05
2023-04-16T12:24:01.087Z,11.66
2023-04-16T12:29:12.718Z,11.44
2023-04-16T12:34:48.111Z,10.80
2023-04-16T12:39:59.120Z,10.71
2023-04-16T12:45:11.458Z,10.42
2023-04-16T12:50:18.016Z,10.47
2023-04-16T12:55:23.723Z,10.45
2023-04-16T13:00:34.012Z,10.38
2023-04-16T13:05:36.465Z,10.36
2023-04-16T13:10:39.163Z,10.21
2023-04-16T13:15:42.300Z,10.22
2023-04-16T13:21:05.132Z,9.95
2023-04-16T13:26:27.957Z,10.13
2023-04-16T13:31:30.394Z,10.05
2023-04-16T13:36:40.318Z,9.62
2023-04-16T13:41:42.734Z,9.57
2023-04-16T13:46:47.714Z,9.27
2023-04-16T13:51:56.721Z,9.25
2023-04-16T13:56:59.022Z,9.33
2023-04-16T14:02:09.094Z,9.25
2023-04-16T14:07:25.595Z,9.19
2023-04-16T14:12:38.120Z,9.42
2023-04-16T14:17:44.080Z,9.47
2023-04-16T14:22:57.027Z,9.69
2023-04-16T14:28:00.567Z,9.60
2023-04-16T14:33:04.346Z,9.44
2023-04-16T14:38:16.762Z,9.58
2023-04-16T14:43:19.225Z,9.70
2023-04-16T14:48:22.697Z,9.93
2023-04-16T14:53:27.181Z,10.08
2023-04-16T14:58:30.133Z,10.09
2023-04-16T15:03:33.473Z,10.33
2023-04-16T15:08:37.019Z,10.31
2023-04-16T15:13:39.533Z,10.28
2023-04-16T15:18:42.188Z,9.96
2023-04-16T15:23:44.506Z,10.17
2023-04-16T15:28:47.221Z,10.51
2023-04-16T15:33:50.542Z,10.46
2023-04-16T15:38:52.927Z,10.79
2023-04-16T15:43:56.056Z,10.71
2023-04-16T15:49:02.825Z,10.89
2023-04-16T15:54:06.514Z,10.69
2023-04-16T15:59:20.292Z,10.58
2023-04-16T16:04:32.720Z,10.53
2023-04-16T16:09:38.070Z,10.56
2023-04-16T16:14:50.869Z,10.33
2023-04-16T16:19:56.260Z,9.98
2023-04-16T16:24:58.807Z,9.85
2023-04-16T16:30:06.478Z,10.40
2023-04-16T16:35:09.689Z,10.09
2023-04-16T16:40:14.285Z,9.52
2023-04-16T16:45:17.082Z,9.71
2023-04-16T16:50:20.334Z,9.51
2023-04-16T16:55:23.874Z,9.35
2023-04-16T17:00:28.081Z,9.19
2023-04-16T17:05:31.375Z,9.02
2023-04-16T17:10:34.081Z,8.84
2023-04-16T17:15:36.297Z,8.68
2023-04-16T17:20:38.606Z,8.33
2023-04-16T17:25:41.002Z,8.32
2023-04-16T17:30:44.477Z,8.17
2023-04-16T17:35:47.646Z,7.93
2023-04-16T17:40:50.876Z,7.81
2023-04-16T17:45:53.510Z,7.56
2023-04-16T17:50:56.768Z,7.31
2023-04-16T17:55:59.705Z,7.03
2023-04-16T18:01:04.435Z,6.96
2023-04-16T18:06:07.233Z,7.07
2023-04-16T18:11:10.009Z,7.21
2023-04-16T18:16:12.841Z,7.21
2023-04-16T18:21:15.687Z,7.33
2023-04-16T18:26:20.907Z,7.31
2023-04-16T18:31:25.354Z,7.39
2023-04-16T18:36:27.838Z,7.43
2023-04-16T18:41:31.107Z,7.36
2023-04-16T18:46:34.245Z,7.44
2023-04-16T18:51:36.716Z,7.49
2023-04-16T18:56:39.112Z,7.49
2023-04-16T19:01:41.443Z,7.43
2023-04-16T19:06:44.970Z,7.38
2023-04-16T19:11:50.963Z,7.38
2023-04-16T19:16:53.669Z,7.35
2023-04-16T19:21:56.267Z,7.43
2023-04-16T19:26:58.660Z,7.26
2023-04-16T19:32:01.360Z,7.27
2023-04-16T19:37:03.820Z,7.12
2023-04-16T19:42:06.134Z,6.93
2023-04-16T19:47:08.459Z,6.81
2023-04-16T19:52:10.868Z,6.61
2023-04-16T19:57:22.710Z,6.46
2023-04-16T20:02:25.446Z,6.29
2023-04-16T20:07:28.208Z,6.15
2023-04-16T20:12:31.229Z,5.97
2023-04-16T20:17:33.938Z,5.93
2023-04-16T20:22:37.346Z,5.77
2023-04-16T20:27:40.402Z,5.65
2023-04-16T20:32:42.885Z,5.55
2023-04-16T20:37:45.219Z,5.55
2023-04-16T20:42:47.588Z,5.60
2023-04-16T20:47:49.985Z,5.54
2023-04-16T20:52:52.300Z,5.52
2023-04-16T20:57:54.712Z,5.41
2023-04-16T21:02:57.997Z,5.38
2023-04-16T21:08:00.567Z,5.33
2023-04-16T21:13:03.777Z,5.30
2023-04-16T21:18:06.256Z,5.37
2023-04-16T21:23:08.696Z,5.62
2023-04-16T21:28:11.051Z,5.86
2023-04-16T21:33:14.713Z,5.93
2023-04-16T21:38:16.950Z,6.13
2023-04-16T21:43:19.724Z,6.22
2023-04-16T21:48:22.387Z,6.34
2023-04-16T21:53:24.841Z,6.38
2023-04-16T21:58:27.159Z,6.43
2023-04-16T22:03:31.305Z,6.37
2023-04-16T22:08:34.586Z,6.35
2023-04-16T22:13:37.569Z,6.32
2023-04-16T22:18:41.192Z,6.33
2023-04-16T22:23:44.436Z,6.35
2023-04-16T22:28:47.330Z,6.26
2023-04-16T22:33:50.641Z,6.14
2023-04-16T22:38:54.200Z,5.97
2023-04-16T22:43:56.515Z,5.72
2023-04-16T22:48:58.967Z,5.49
2023-04-16T22:54:01.344Z,5.32
2023-04-16T22:59:03.627Z,5.18
2023-04-16T23:04:06.237Z,5.09
2023-04-16T23:09:08.646Z,5.00
2023-04-16T23:14:11.045Z,4.91
2023-04-16T23:19:14.961Z,4.80
2023-04-16T23:24:17.393Z,4.70
2023-04-16T23:29:20.606Z,4.65
2023-04-16T23:34:23.798Z,4.61
2023-04-16T23:39:27.143Z,4.66
2023-04-16T23:44:29.755Z,4.83
2023-04-16T23:49:32.859Z,4.99
2023-04-16T23:54:35.312Z,5.12
2023-04-16T23:59:37.733Z,5.16
